• Join FlightAware (Why Join?)
  • Login
  • US Flag 
03:26PM EDT


 

Airport Tracker/Info


-or-


 

Live Flight TrackerFlight Track Log ✈ EJA922 ✈ 24-Jul-2013 ✈ KAPA - KSJC

Flight Track Log - Related Links

Times and Time Zones

All times are in EDT time to prevent confusion due to time zone crossing. See the EJA922 flight status page for this flight to view local times or setup timezone preferences in your user account.

Time Position Orientation Groundspeed Altitude Reporting Facility
EDT Latitude Longitude Course Direction KTS MPH feet Rate Location/Type
04:53PM 39.5333 -104.8500 288° West 190 219 7,200  Level Denver TRACON
04:54PM 39.5500 -104.9167 288° West 242 278 9,200 2,220 Climbing Denver TRACON
04:55PM 39.6133 -104.9406 344° North 253 291 11,500 2,520 Climbing Denver Center
04:56PM 39.6900 -104.9561 351° North 278 320 14,200 3,000 Climbing Denver Center
04:57PM 39.7703 -104.9378 10° North 270 311 17,700 2,160 Climbing Denver Center
04:58PM 39.8500 -104.9214 North 293 337 18,700 1,020 Climbing Denver Center
04:59PM 39.9483 -104.8986 10° North 329 379 19,900 1,140 Climbing Denver Center
05:00PM 40.0433 -104.8753 11° North 345 397 21,100 1,500 Climbing Denver Center
05:01PM 40.1419 -104.8819 357° North 357 411 23,000 1,680 Climbing Denver Center
05:02PM 40.2358 -104.9100 347° North 341 392 24,600 1,200 Climbing Denver Center
05:03PM 40.3300 -104.9400 346° North 344 396 25,600 840 Climbing Denver Center
05:04PM 40.4294 -104.9697 347° North 366 421 26,400 1,260 Climbing Denver Center
05:05PM 40.5514 -105.0064 347° North 371 427 28,300 1,200 Climbing Denver Center
05:06PM 40.6600 -105.0408 346° North 406 467 29,000 600 Climbing Denver Center
05:07PM 40.7739 -105.0786 346° North 412 474 29,600 600 Climbing Denver Center
05:08PM 40.8667 -105.1828 320° Northwest 438 504 30,300 720 Climbing Denver Center
05:09PM 40.9158 -105.3292 294° West 443 510 31,200 1,200 Climbing Denver Center
05:10PM 40.9186 -105.4897 271° West 440 506 32,900 1,740 Climbing Denver Center
05:11PM 40.9222 -105.6811 271° West 435 501 34,800 1,500 Climbing Denver Center
05:12PM 40.9236 -105.8400 271° West 434 499 36,000 540 Climbing Denver Center
05:13PM 40.9267 -106.0078 271° West 451 519 36,000 480 Level Denver Center
05:14PM 40.9278 -106.2050 270° West 478 550 37,000 960 Climbing Denver Center
05:15PM 40.9300 -106.3739 271° West 481 554 38,000 960 Climbing Denver Center
05:16PM 40.9322 -106.5672 271° West 471 542 39,100 960 Climbing Denver Center
05:17PM 40.9339 -106.7306 271° West 465 535 40,000 960 Climbing Denver Center
05:18PM 40.9350 -106.9200 271° West 462 532 41,100 960 Climbing Denver Center
05:19PM 40.9358 -107.0814 270° West 459 528 42,100 900 Climbing Denver Center
05:20PM 40.9358 -107.2389 270° West 450 518 43,000 420 Climbing Denver Center
05:21PM 40.9361 -107.4272 270° West 458 527 43,000  Level Denver Center
05:23PM 40.9375 -107.5914 271° West 466 536 43,000  Level Denver Center
05:24PM 40.9364 -107.7831 270° West 467 537 43,000  Level Denver Center
05:25PM 40.9358 -107.9494 270° West 469 540 43,000  Level Salt Lake Center
05:26PM 40.9356 -108.1153 270° West 471 542 43,000  Level Salt Lake Center
05:27PM 40.9331 -108.3083 269° West 471 542 43,000  Level Salt Lake Center
05:28PM 40.9328 -108.5008 270° West 469 540 43,000  Level Denver Center
05:29PM 40.9306 -108.6686 269° West 472 543 43,000  Level Salt Lake Center
05:30PM 40.9289 -108.8336 269° West 469 540 43,000  Level Salt Lake Center
05:31PM 40.9261 -109.0297 269° West 473 544 43,000  Level Salt Lake Center
05:32PM 40.9211 -109.1956 268° West 470 541 43,000  Level Salt Lake Center
05:33PM 40.8722 -109.3506 247° West 474 545 43,000  Level Salt Lake Center
05:34PM 40.8117 -109.5131 244° Southwest 476 548 43,000  Level Salt Lake Center
05:35PM 40.7458 -109.6867 243° Southwest 475 547 43,000  Level Salt Lake Center
05:36PM 40.6889 -109.8328 243° Southwest 471 542 43,000  Level Salt Lake Center
05:37PM 40.6233 -110.0047 243° Southwest 470 541 43,000  Level Salt Lake Center
05:38PM 40.5667 -110.1506 243° Southwest 470 541 43,000  Level Salt Lake Center
05:39PM 40.4997 -110.3219 243° Southwest 472 543 43,000  Level Salt Lake Center
05:40PM 40.4425 -110.4686 243° Southwest 472 543 43,000  Level Salt Lake Center
05:41PM 40.3772 -110.6361 243° Southwest 472 543 43,000  Level Salt Lake Center
05:42PM 40.3172 -110.7878 243° Southwest 470 541 43,000  Level Salt Lake Center
05:43PM 40.2564 -110.9403 242° Southwest 471 542 43,000  Level Salt Lake Center
05:44PM 40.1958 -111.0925 243° Southwest 472 543 43,000  Level Salt Lake Center
05:45PM 40.1344 -111.2453 242° Southwest 473 544 43,000  Level Salt Lake Center
05:46PM 40.0594 -111.4264 242° Southwest 474 545 43,000  Level Salt Lake Center
05:47PM 39.9958 -111.5814 242° Southwest 474 545 43,000  Level Salt Lake Center
05:48PM 39.9367 -111.7294 243° Southwest 472 543 43,000  Level Salt Lake Center
05:49PM 39.8756 -111.8811 242° Southwest 472 543 43,000  Level Salt Lake Center
05:50PM 39.8144 -112.0297 242° Southwest 466 536 43,000  Level Salt Lake Center
05:51PM 39.7525 -112.1806 242° Southwest 469 540 43,000  Level Salt Lake Center
05:52PM 39.6903 -112.3292 241° Southwest 467 537 43,000  Level Salt Lake Center
05:53PM 39.6164 -112.5092 242° Southwest 471 542 43,000  Level Salt Lake Center
05:54PM 39.5506 -112.6647 241° Southwest 470 541 43,000  Level Salt Lake Center
05:56PM 39.4878 -112.8097 241° Southwest 465 535 43,000  Level Salt Lake Center
05:57PM 39.4242 -112.9589 241° Southwest 472 543 43,000  Level Salt Lake Center
05:58PM 39.3611 -113.1083 241° Southwest 474 545 43,000  Level Salt Lake Center
05:59PM 39.2981 -113.2572 241° Southwest 474 545 43,000  Level Salt Lake Center
06:00PM 39.2489 -113.4139 248° West 473 544 43,000  Level Salt Lake Center
06:01PM 39.1897 -113.6028 248° West 476 548 43,000  Level Salt Lake Center
06:02PM 39.1397 -113.7592 248° West 474 545 43,000  Level Salt Lake Center
06:03PM 39.0903 -113.9147 248° West 472 543 43,000  Level Salt Lake Center
06:04PM 39.0392 -114.0719 247° West 476 548 43,000  Level Salt Lake Center
06:05PM 38.9889 -114.2292 248° West 476 548 43,000  Level Salt Lake Center
06:06PM 38.9375 -114.3847 247° West 475 547 43,000  Level Salt Lake Center
06:07PM 38.8772 -114.5703 247° West 471 542 43,000  Level Salt Lake Center
06:08PM 38.8256 -114.7264 247° West 475 547 43,000  Level Salt Lake Center
06:09PM 38.7744 -114.8817 247° West 475 547 43,000  Level Salt Lake Center
06:10PM 38.7236 -115.0358 247° West 472 543 43,000  Level Salt Lake Center
06:11PM 38.6711 -115.1919 247° West 476 548 43,000  Level Salt Lake Center
06:12PM 38.6081 -115.3750 246° West 475 547 43,000  Level Salt Lake Center
06:13PM 38.5569 -115.5300 247° West 473 544 43,000  Level Salt Lake Center
06:14PM 38.5044 -115.6828 246° West 472 543 43,000  Level Salt Lake Center
06:15PM 38.4525 -115.8381 247° West 474 545 43,000  Level Salt Lake Center
06:16PM 38.3981 -115.9931 246° West 477 549 43,000  Level Salt Lake Center
06:17PM 38.3442 -116.1489 246° West 480 552 43,000  Level Salt Lake Center
06:18PM 38.2806 -116.3331 246° West 475 547 43,000  Level Salt Lake Center
06:19PM 38.2267 -116.4864 246° West 474 545 43,000  Level Salt Lake Center
06:20PM 38.1733 -116.6392 246° West 473 544 43,000  Level Salt Lake Center
06:21PM 38.1292 -116.7617 245° Southwest 473 544 43,000  Level Oakland Center
06:22PM 38.0753 -116.9136 246° West 471 542 43,000  Level Oakland Center
06:23PM 38.0194 -117.0692 246° West 474 545 43,000  Level Oakland Center
06:24PM 37.9642 -117.2258 246° West 474 545 43,000  Level Oakland Center
06:25PM 37.9089 -117.3794 246° West 473 544 43,000  Level Oakland Center
06:26PM 37.8542 -117.5308 245° Southwest 471 542 43,000  Level Oakland Center
06:27PM 37.7997 -117.6789 245° Southwest 466 536 43,000  Level Oakland Center
06:28PM 37.7456 -117.8303 246° West 470 541 43,000 -60 Level Oakland Center
06:29PM 37.6889 -117.9797 244° Southwest 471 542 42,900 -1,260 Descending Oakland Center
06:30PM 37.6353 -118.1283 246° West 467 537 40,500 -2,640 Descending Oakland Center
06:31PM 37.5711 -118.2992 245° Southwest 451 519 37,600 -2,580 Descending Oakland Center
06:32PM 37.5178 -118.4408 245° Southwest 446 513 35,300 -2,340 Descending Oakland Center
06:33PM 37.4650 -118.5853 245° Southwest 453 521 32,900 -2,460 Descending Oakland Center
06:34PM 37.4083 -118.7342 244° Southwest 472 543 30,300 -1,440 Descending Oakland Center
06:35PM 37.3789 -118.8900 257° West 485 558 30,000 -240 Descending Oakland Center
06:37PM 37.3614 -119.0608 263° West 493 567 29,900 -720 Descending Oakland Center
06:38PM 37.3456 -119.2181 263° West 460 529 28,600 -2,280 Descending Oakland Center
06:39PM 37.3264 -119.4017 263° West 445 512 25,300 -3,060 Descending Oakland Center
06:40PM 37.3111 -119.5481 263° West 429 494 22,400 -2,640 Descending Oakland Center
06:41PM 37.2964 -119.6911 263° West 418 481 20,000 -1,200 Descending Oakland Center
06:42PM 37.2800 -119.8453 262° West 419 482 20,000  Level Oakland Center
06:43PM 37.2639 -120.0008 263° West 444 511 20,000  Level Oakland Center
06:44PM 37.2464 -120.1597 262° West 460 529 20,000 -120 Level Oakland Center
06:45PM 37.2294 -120.3161 262° West 454 522 19,800 -780 Descending Oakland Center
06:46PM 37.2058 -120.4700 259° West 451 519 18,500 -1,260 Descending Oakland Center
06:47PM 37.1697 -120.6261 254° West 464 534 17,300 -1,260 Descending Oakland Center
06:48PM 37.1375 -120.7772 255° West 450 518 16,000 -1,560 Descending Oakland Center
06:49PM 37.1156 -120.9233 259° West 435 501 14,200 -1,620 Descending Oakland Center
06:50PM 37.1006 -121.0642 262° West 418 481 12,800 -1,500 Descending Oakland Center
06:51PM 37.0833 -121.2347 263° West 413 475 11,200 -1,380 Descending Oakland Center
06:52PM 37.0669 -121.3614 261° West 390 449 10,000 -1,200 Descending Oakland Center
06:53PM 37.0736 -121.4611 275° West 321 369 8,800 -1,260 Descending Oakland Center
06:54PM 37.1083 -121.5514 296° West 290 334 7,500 -1,260 Descending Oakland Center
06:55PM 37.1356 -121.6283 294° West 246 283 6,300 -1,140 Descending Oakland Center
06:56PM 37.1581 -121.7000 292° West 229 264 5,200 -1,140 Descending Oakland Center
06:57PM 37.1897 -121.7511 308° West 207 238 4,000 -1,080 Descending Oakland Center
06:58PM 37.2322 -121.7903 324° Northwest 195 224 3,000 -900 Descending Oakland Center
06:59PM 37.2700 -121.8292 321° Northwest 187 215 2,200 -840 Descending Oakland Center
07:00PM 37.3033 -121.8656 319° Northwest 149 171 1,300 -840 Descending Oakland Center
07:01PM 37.3306 -121.8964 318° Northwest 138 159 600 -720 Descending Oakland Center
07:04PM 37.3500 -121.9167 North  Level FlightAware Approximate